Time;durP1;ratioP1;P1;durP2;ratioP2;P2;SDS_P1;SDS_P2;PMS_P1;PMS_P2;Temp;Humidity;BMP_temperature;BMP_pressure;BME280_temperature;BME280_humidity;BME280_pressure;Samples;Min_cycle;Max_cycle;Signal;HPM_P1;HPM_P2
2022/04/03 00:00:32;;;;;;;7.03;5.55;;;0.10;99.90;;;;;;474597;250;27904;-71
2022/04/03 00:02:34;;;;;;;6.70;6.00;;;0.10;99.90;;;;;;474580;250;28040;-71
2022/04/03 00:04:35;;;;;;;8.90;6.30;;;0.10;99.90;;;;;;474617;250;28758;-71
2022/04/03 00:06:36;;;;;;;7.57;5.78;;;0.10;99.90;;;;;;474635;250;27421;-71
2022/04/03 00:08:37;;;;;;;6.72;5.95;;;0.10;99.90;;;;;;474621;250;27484;-72
2022/04/03 00:10:40;;;;;;;6.25;5.65;;;0.10;99.90;;;;;;474604;250;27437;-71
2022/04/03 00:12:40;;;;;;;6.62;5.75;;;0.10;99.90;;;;;;474590;250;27507;-71
2022/04/03 00:14:41;;;;;;;5.97;5.32;;;0.10;99.90;;;;;;474649;250;27847;-71
2022/04/03 00:16:42;;;;;;;6.30;5.40;;;0.10;99.90;;;;;;474619;250;27452;-71
2022/04/03 00:18:45;;;;;;;6.90;5.18;;;0.10;99.90;;;;;;474646;250;27479;-71
2022/04/03 00:20:46;;;;;;;5.75;5.25;;;0.10;99.90;;;;;;474554;250;27453;-72
2022/04/03 00:22:50;;;;;;;7.15;6.12;;;0.10;99.90;;;;;;474506;250;27511;-72
2022/04/03 00:24:47;;;;;;;6.50;5.90;;;0.10;99.90;;;;;;474353;250;27618;-72
2022/04/03 00:26:49;;;;;;;7.03;5.80;;;0.10;99.90;;;;;;474603;250;27984;-71
2022/04/03 00:28:50;;;;;;;5.75;5.15;;;0.10;99.90;;;;;;474586;250;28055;-71
2022/04/03 00:30:51;;;;;;;6.45;5.70;;;0.20;99.90;;;;;;474583;250;28031;-71
2022/04/03 00:32:52;;;;;;;6.50;5.80;;;0.20;99.90;;;;;;474588;250;27472;-71
2022/04/03 00:34:54;;;;;;;5.47;4.90;;;0.20;99.90;;;;;;474616;250;27459;-70
2022/04/03 00:36:55;;;;;;;6.50;5.90;;;0.20;99.90;;;;;;474594;250;27453;-71
2022/04/03 00:38:56;;;;;;;5.55;4.93;;;0.20;99.90;;;;;;474604;250;27468;-71
2022/04/03 00:40:57;;;;;;;6.97;6.28;;;0.20;99.90;;;;;;474587;250;27512;-71
2022/04/03 00:42:59;;;;;;;8.38;5.35;;;0.20;99.90;;;;;;474581;250;27461;-71
2022/04/03 00:45:00;;;;;;;5.47;4.97;;;0.20;99.90;;;;;;474595;250;27488;-72
2022/04/03 00:47:01;;;;;;;6.22;5.25;;;0.20;99.90;;;;;;474602;250;27520;-71
2022/04/03 00:49:02;;;;;;;6.22;5.57;;;0.20;99.90;;;;;;474620;250;27468;-72
2022/04/03 00:51:04;;;;;;;7.30;5.90;;;0.20;99.90;;;;;;474608;250;27552;-70
2022/04/03 00:53:05;;;;;;;7.70;5.80;;;0.20;99.90;;;;;;474597;250;27492;-71
2022/04/03 00:55:06;;;;;;;7.22;5.97;;;0.20;99.90;;;;;;474559;250;28647;-71
2022/04/03 00:57:07;;;;;;;9.13;6.53;;;0.20;99.90;;;;;;474599;250;27893;-71
2022/04/03 00:59:09;;;;;;;10.50;6.53;;;0.10;99.90;;;;;;474606;250;27995;-72
2022/04/03 01:01:10;;;;;;;9.88;7.15;;;0.20;99.90;;;;;;474594;250;27497;-71
2022/04/03 01:03:11;;;;;;;8.73;7.18;;;0.20;99.90;;;;;;474579;250;27580;-71
2022/04/03 01:05:12;;;;;;;10.35;7.40;;;0.10;99.90;;;;;;474600;250;27464;-71
2022/04/03 01:07:14;;;;;;;8.98;7.05;;;0.10;99.90;;;;;;474624;250;27502;-71
2022/04/03 01:09:15;;;;;;;7.90;6.37;;;0.10;99.90;;;;;;474586;250;27599;-71
2022/04/03 01:11:16;;;;;;;11.35;7.97;;;0.10;99.90;;;;;;474618;250;27504;-71
2022/04/03 01:13:17;;;;;;;9.25;7.25;;;0.10;99.90;;;;;;474585;250;27475;-71
2022/04/03 01:15:19;;;;;;;10.43;7.72;;;0.10;99.90;;;;;;474597;250;27492;-73
2022/04/03 01:17:20;;;;;;;7.80;6.45;;;0.10;99.90;;;;;;474604;250;27435;-71
2022/04/03 01:19:21;;;;;;;8.98;6.68;;;0.10;99.90;;;;;;474611;250;27994;-72
2022/04/03 01:21:23;;;;;;;9.05;6.82;;;0.10;99.90;;;;;;474605;250;27999;-71
2022/04/03 01:23:27;;;;;;;11.18;6.85;;;0.10;99.90;;;;;;474553;250;27954;-72
2022/04/03 01:25:25;;;;;;;8.40;6.53;;;-2.10;99.90;;;;;;474505;250;27464;-73
2022/04/03 01:27:26;;;;;;;8.90;6.60;;;0.20;99.90;;;;;;474595;250;27431;-71
2022/04/03 01:29:28;;;;;;;7.45;6.40;;;0.20;99.90;;;;;;474621;250;27476;-73
2022/04/03 01:31:29;;;;;;;9.40;6.95;;;0.20;99.90;;;;;;474611;250;27512;-71
2022/04/03 01:33:30;;;;;;;8.75;6.90;;;0.20;99.90;;;;;;474610;250;27532;-71
2022/04/03 01:35:31;;;;;;;8.27;7.10;;;0.20;99.90;;;;;;474634;250;27908;-73
2022/04/03 01:37:32;;;;;;;7.55;6.22;;;0.20;99.90;;;;;;474634;250;27468;-71
2022/04/03 01:39:34;;;;;;;9.60;7.15;;;0.20;99.90;;;;;;474621;250;27559;-72
2022/04/03 01:41:35;;;;;;;7.00;6.30;;;0.20;99.90;;;;;;474607;250;27565;-71
2022/04/03 01:43:36;;;;;;;8.27;6.85;;;0.20;99.90;;;;;;474562;250;27535;-71
2022/04/03 01:45:37;;;;;;;7.78;6.12;;;0.20;99.90;;;;;;474614;250;27960;-73
2022/04/03 01:47:39;;;;;;;7.10;6.05;;;0.20;99.90;;;;;;474614;250;27912;-71
2022/04/03 01:49:40;;;;;;;6.45;5.85;;;0.20;99.90;;;;;;474597;250;27975;-72
2022/04/03 01:51:41;;;;;;;6.65;5.90;;;0.20;99.90;;;;;;474592;250;27994;-71
2022/04/03 01:53:42;;;;;;;7.55;5.70;;;0.20;99.90;;;;;;474559;250;27453;-71
2022/04/03 01:55:44;;;;;;;5.90;5.30;;;0.20;99.90;;;;;;474635;250;27556;-72
2022/04/03 01:57:47;;;;;;;6.22;5.65;;;;;;;;;;474613;250;27440;-72
2022/04/03 01:59:49;;;;;;;6.85;5.28;;;0.20;99.90;;;;;;474603;249;26875;-71
2022/04/03 02:01:50;;;;;;;6.55;5.43;;;0.10;99.90;;;;;;474645;250;27544;-72
2022/04/03 02:03:51;;;;;;;6.15;5.55;;;0.10;99.90;;;;;;474560;250;27524;-71
2022/04/03 02:05:52;;;;;;;6.78;5.78;;;0.20;99.90;;;;;;474597;250;27520;-71
2022/04/03 02:07:54;;;;;;;6.47;5.43;;;0.10;99.90;;;;;;474598;250;27496;-71
2022/04/03 02:09:55;;;;;;;6.12;5.53;;;0.10;99.90;;;;;;474606;250;27457;-71
2022/04/03 02:11:57;;;;;;;5.20;4.70;;;0.10;99.90;;;;;;474614;250;27488;-73
2022/04/03 02:13:57;;;;;;;5.03;4.55;;;0.10;99.90;;;;;;474581;250;27504;-71
2022/04/03 02:15:59;;;;;;;5.37;4.72;;;0.10;99.90;;;;;;474576;250;27580;-72
2022/04/03 02:18:00;;;;;;;7.50;5.53;;;0.10;99.90;;;;;;474606;250;27524;-71
2022/04/03 02:20:01;;;;;;;5.28;4.57;;;0.00;99.90;;;;;;474600;250;27519;-71
2022/04/03 02:22:02;;;;;;;7.35;5.10;;;0.00;99.90;;;;;;474593;250;28164;-72
2022/04/03 02:24:04;;;;;;;5.60;5.00;;;0.00;99.90;;;;;;474589;250;27960;-71
2022/04/03 02:26:05;;;;;;;5.10;4.60;;;0.00;99.90;;;;;;474601;250;28147;-72
2022/04/03 02:28:08;;;;;;;6.35;5.50;;;0.00;99.90;;;;;;474578;250;28783;-71
2022/04/03 02:30:10;;;;;;;6.37;5.12;;;0.00;99.90;;;;;;474475;250;27469;-71
2022/04/03 02:32:11;;;;;;;5.50;4.82;;;;;;;;;;474500;250;27504;-71
2022/04/03 02:34:12;;;;;;;5.70;5.10;;;-0.10;99.90;;;;;;474610;249;26944;-70
2022/04/03 02:36:13;;;;;;;5.00;4.50;;;-0.10;99.90;;;;;;474577;250;27548;-71
2022/04/03 02:38:18;;;;;;;4.78;4.35;;;-0.10;99.90;;;;;;474603;250;27585;-71
2022/04/03 02:40:16;;;;;;;6.68;5.10;;;-0.10;99.90;;;;;;474452;250;27425;-71
2022/04/03 02:42:17;;;;;;;6.70;5.18;;;-0.10;99.90;;;;;;474595;250;27539;-72
2022/04/03 02:44:18;;;;;;;5.10;4.60;;;-0.10;99.90;;;;;;474570;250;27520;-71
2022/04/03 02:46:20;;;;;;;6.87;4.35;;;-0.10;99.90;;;;;;474582;250;27488;-71
2022/04/03 02:48:22;;;;;;;5.82;4.95;;;-0.10;99.90;;;;;;474613;250;27480;-74
2022/04/03 02:50:22;;;;;;;5.32;4.80;;;-0.10;99.90;;;;;;474579;250;27435;-71
2022/04/03 02:52:23;;;;;;;4.62;4.20;;;-0.10;99.90;;;;;;474599;250;27959;-72
2022/04/03 02:54:25;;;;;;;5.75;5.00;;;-0.20;99.90;;;;;;474588;250;27957;-72
2022/04/03 02:56:26;;;;;;;6.15;5.55;;;-0.20;99.90;;;;;;474591;250;27524;-72
2022/04/03 02:58:27;;;;;;;5.45;4.78;;;-0.20;99.90;;;;;;474625;250;27552;-73
2022/04/03 03:00:28;;;;;;;8.10;6.37;;;-0.30;99.90;;;;;;474611;250;27429;-71
2022/04/03 03:02:30;;;;;;;7.03;6.10;;;-0.40;99.90;;;;;;474574;250;27463;-72
2022/04/03 03:04:40;;;;;;;7.90;6.53;;;-0.40;99.90;;;;;;474577;250;27432;-71
2022/04/03 03:06:32;;;;;;;5.93;5.32;;;-0.40;99.90;;;;;;474235;250;27512;-71
2022/04/03 03:08:33;;;;;;;9.35;6.30;;;-0.40;99.90;;;;;;474618;250;27478;-72
2022/04/03 03:10:35;;;;;;;10.18;6.18;;;-0.50;99.90;;;;;;474596;250;27964;-72
2022/04/03 03:12:36;;;;;;;9.27;6.70;;;-0.50;99.90;;;;;;474597;250;27948;-71
2022/04/03 03:14:37;;;;;;;10.75;7.50;;;-0.50;99.90;;;;;;474592;250;28761;-71
2022/04/03 03:16:38;;;;;;;10.45;7.28;;;-0.60;99.90;;;;;;474611;250;27421;-71
2022/04/03 03:18:40;;;;;;;9.60;7.50;;;-0.60;99.90;;;;;;474598;250;27479;-71
2022/04/03 03:20:41;;;;;;;8.50;7.20;;;-0.60;99.90;;;;;;474560;250;27425;-71
2022/04/03 03:22:43;;;;;;;10.00;7.00;;;-0.60;99.90;;;;;;474576;250;27480;-71
2022/04/03 03:24:44;;;;;;;8.13;6.53;;;-0.70;99.90;;;;;;474540;250;27465;-71
2022/04/03 03:26:45;;;;;;;8.85;6.62;;;-0.70;99.90;;;;;;474595;250;27477;-71
2022/04/03 03:28:46;;;;;;;7.40;5.60;;;-0.70;99.90;;;;;;474589;250;27913;-72
2022/04/03 03:30:47;;;;;;;5.68;5.18;;;-0.70;99.90;;;;;;474597;250;27904;-71
2022/04/03 03:32:48;;;;;;;7.62;5.60;;;-0.70;99.90;;;;;;474576;250;28059;-71
2022/04/03 03:34:50;;;;;;;6.47;5.80;;;-0.80;99.90;;;;;;474600;250;27513;-71
2022/04/03 03:36:51;;;;;;;6.82;5.25;;;-0.80;99.90;;;;;;474604;250;27504;-71
2022/04/03 03:38:52;;;;;;;7.53;5.82;;;-0.80;99.90;;;;;;474607;250;27590;-71
2022/04/03 03:40:53;;;;;;;7.12;5.93;;;-0.80;99.90;;;;;;474608;250;27509;-71
2022/04/03 03:42:55;;;;;;;5.40;4.90;;;-0.70;99.90;;;;;;474614;250;27536;-72
2022/04/03 03:44:56;;;;;;;5.75;5.15;;;-0.70;99.90;;;;;;474589;250;27824;-73
2022/04/03 03:46:57;;;;;;;6.70;5.30;;;-0.70;99.90;;;;;;474617;250;27561;-71
2022/04/03 03:48:58;;;;;;;5.75;5.20;;;-0.70;99.90;;;;;;480814;234;28146;-72
2022/04/03 03:51:00;;;;;;;6.47;5.30;;;-0.70;99.90;;;;;;484735;245;27866;-71
2022/04/03 03:53:01;;;;;;;6.93;5.50;;;-0.70;99.90;;;;;;484734;245;29095;-72
2022/04/03 03:55:02;;;;;;;6.40;5.05;;;-0.60;99.90;;;;;;484773;245;27435;-74
2022/04/03 03:57:03;;;;;;;5.10;4.60;;;-0.70;99.90;;;;;;484759;245;27479;-72
2022/04/03 03:59:08;;;;;;;5.60;4.70;;;-0.70;99.90;;;;;;484778;245;27432;-72
2022/04/03 04:01:06;;;;;;;5.10;4.60;;;-0.70;99.90;;;;;;484618;245;27429;-71
2022/04/03 04:03:07;;;;;;;5.78;4.93;;;-0.60;99.90;;;;;;484751;245;27435;-72
2022/04/03 04:05:09;;;;;;;6.50;4.90;;;-0.60;99.90;;;;;;484757;245;27786;-73
2022/04/03 04:07:10;;;;;;;6.50;5.57;;;-0.60;99.90;;;;;;484769;245;27400;-71
2022/04/03 04:09:12;;;;;;;5.68;4.95;;;-0.60;99.90;;;;;;484796;245;27911;-71
2022/04/03 04:11:12;;;;;;;5.43;4.93;;;-0.70;99.90;;;;;;484716;245;27843;-71
2022/04/03 04:13:13;;;;;;;7.18;4.80;;;-0.70;99.90;;;;;;484780;245;27919;-71
2022/04/03 04:15:15;;;;;;;5.45;4.95;;;-0.70;99.90;;;;;;484797;245;27444;-72
2022/04/03 04:17:16;;;;;;;6.30;5.40;;;-0.70;99.90;;;;;;484790;245;27476;-71
2022/04/03 04:19:17;;;;;;;5.55;5.03;;;-0.70;99.90;;;;;;484753;245;27535;-71
2022/04/03 04:21:18;;;;;;;5.68;5.10;;;-0.80;99.90;;;;;;484767;245;27397;-71
2022/04/03 04:23:20;;;;;;;6.53;5.35;;;-0.70;99.90;;;;;;484771;245;27551;-71
2022/04/03 04:25:21;;;;;;;7.22;5.30;;;-0.70;99.90;;;;;;484779;245;27449;-74
2022/04/03 04:27:22;;;;;;;6.00;5.40;;;-0.70;99.90;;;;;;484787;245;27409;-71
2022/04/03 04:29:24;;;;;;;9.15;4.80;;;-0.80;99.90;;;;;;484789;245;27933;-72
2022/04/03 04:31:25;;;;;;;5.90;4.65;;;-0.80;99.90;;;;;;484798;245;28948;-71
2022/04/03 04:33:26;;;;;;;6.00;5.05;;;-0.80;99.90;;;;;;484769;245;27906;-72
2022/04/03 04:35:27;;;;;;;7.28;5.57;;;-0.80;99.90;;;;;;484793;245;27459;-73
2022/04/03 04:37:29;;;;;;;6.55;5.30;;;-0.80;99.90;;;;;;484821;245;27400;-71
2022/04/03 04:39:31;;;;;;;6.90;6.30;;;-0.70;99.90;;;;;;484803;245;27543;-72
2022/04/03 04:41:31;;;;;;;6.35;5.60;;;-0.70;99.90;;;;;;484730;245;27483;-71
2022/04/03 04:43:32;;;;;;;7.82;7.03;;;-0.70;99.90;;;;;;484799;245;27543;-71
2022/04/03 04:45:34;;;;;;;6.20;5.30;;;-0.80;99.90;;;;;;484809;245;27449;-72
2022/04/03 04:47:35;;;;;;;5.53;5.07;;;-0.80;99.90;;;;;;484800;245;27483;-71
2022/04/03 04:49:36;;;;;;;7.45;6.55;;;-0.80;99.90;;;;;;484735;245;27924;-71
2022/04/03 04:51:37;;;;;;;7.62;5.87;;;-0.80;99.90;;;;;;484754;245;27863;-71
2022/04/03 04:53:39;;;;;;;6.18;5.68;;;-0.90;99.90;;;;;;484730;245;27525;-71
2022/04/03 04:55:40;;;;;;;6.32;5.72;;;-0.90;99.90;;;;;;484790;245;27548;-72
2022/04/03 04:57:41;;;;;;;6.30;5.70;;;-0.90;99.90;;;;;;484781;245;27396;-71
2022/04/03 04:59:42;;;;;;;5.80;5.30;;;-0.90;99.90;;;;;;484786;245;27502;-73
2022/04/03 05:01:44;;;;;;;6.45;4.95;;;-0.90;99.90;;;;;;484762;245;27472;-71
2022/04/03 05:03:45;;;;;;;6.72;6.12;;;-0.90;99.90;;;;;;484758;245;27443;-71
2022/04/03 05:05:46;;;;;;;7.93;6.10;;;-0.90;99.90;;;;;;484786;245;27479;-74
2022/04/03 05:07:47;;;;;;;7.62;6.40;;;-1.00;99.90;;;;;;484782;245;27476;-71
2022/04/03 05:09:49;;;;;;;8.60;7.65;;;-0.90;99.90;;;;;;484772;245;28067;-72
2022/04/03 05:11:50;;;;;;;8.48;7.50;;;-0.90;99.90;;;;;;484761;245;27856;-71
2022/04/03 05:13:51;;;;;;;11.35;7.70;;;-0.80;99.90;;;;;;484762;245;27436;-72
2022/04/03 05:15:52;;;;;;;10.48;8.55;;;-0.80;99.90;;;;;;484801;245;27428;-73
2022/04/03 05:17:54;;;;;;;8.70;7.57;;;-0.80;99.90;;;;;;484765;245;27396;-71
2022/04/03 05:19:55;;;;;;;10.13;8.27;;;-0.70;99.90;;;;;;484774;245;27451;-72
2022/04/03 05:21:56;;;;;;;11.98;8.80;;;-0.70;99.90;;;;;;484745;245;27460;-71
2022/04/03 05:23:57;;;;;;;10.52;8.32;;;-0.70;99.90;;;;;;484758;245;27536;-71
2022/04/03 05:25:59;;;;;;;9.60;7.75;;;-0.80;99.90;;;;;;484769;245;27916;-72
2022/04/03 05:28:00;;;;;;;10.35;8.18;;;-0.80;99.90;;;;;;484764;245;27978;-71
2022/04/03 05:30:03;;;;;;;10.85;7.20;;;-0.80;99.90;;;;;;484772;245;27523;-72
2022/04/03 05:32:02;;;;;;;8.45;7.37;;;-0.80;99.90;;;;;;484654;245;27494;-72
2022/04/03 05:34:04;;;;;;;11.93;8.57;;;-0.80;99.90;;;;;;484753;245;27521;-71
2022/04/03 05:36:05;;;;;;;7.28;6.53;;;-0.90;99.90;;;;;;484790;245;27436;-73
2022/04/03 05:38:06;;;;;;;8.90;7.40;;;-0.90;99.90;;;;;;484759;245;27467;-71
2022/04/03 05:40:10;;;;;;;9.43;7.93;;;-0.90;99.90;;;;;;484797;245;27452;-71
2022/04/03 05:42:09;;;;;;;10.82;7.20;;;-0.90;99.90;;;;;;484671;245;27468;-71
2022/04/03 05:44:10;;;;;;;10.82;8.70;;;-0.90;99.90;;;;;;484745;245;27900;-71
2022/04/03 05:46:11;;;;;;;9.45;7.95;;;-0.90;99.90;;;;;;484780;245;28042;-73
2022/04/03 05:48:12;;;;;;;9.93;8.40;;;-0.80;99.90;;;;;;484743;245;27380;-71
2022/04/03 05:50:17;;;;;;;8.73;7.75;;;-0.90;99.90;;;;;;484749;245;27432;-72
2022/04/03 05:52:15;;;;;;;11.30;8.75;;;-0.90;99.90;;;;;;484612;245;27483;-71
2022/04/03 05:54:16;;;;;;;10.18;8.15;;;-0.90;99.90;;;;;;484767;245;27486;-71
2022/04/03 05:56:17;;;;;;;8.80;7.90;;;-0.90;99.90;;;;;;484800;245;27602;-72
2022/04/03 05:58:19;;;;;;;9.65;7.78;;;-0.80;99.90;;;;;;484775;245;27500;-71
2022/04/03 06:00:20;;;;;;;10.27;8.13;;;-0.80;99.90;;;;;;484781;245;27448;-71
2022/04/03 06:02:22;;;;;;;12.27;8.25;;;-0.80;99.90;;;;;;484768;245;28627;-71
2022/04/03 06:04:23;;;;;;;9.77;8.77;;;-0.80;99.90;;;;;;484772;245;27941;-71
2022/04/03 06:06:24;;;;;;;10.20;8.20;;;-0.70;99.90;;;;;;484801;245;27555;-72
2022/04/03 06:08:25;;;;;;;9.98;7.50;;;-0.70;99.90;;;;;;484713;245;27443;-71
2022/04/03 06:10:26;;;;;;;11.73;8.77;;;-0.70;99.90;;;;;;484790;245;27472;-71
2022/04/03 06:12:27;;;;;;;9.95;8.10;;;-0.60;99.90;;;;;;484779;245;27411;-71
2022/04/03 06:14:29;;;;;;;9.82;8.10;;;-0.60;99.90;;;;;;484749;245;27432;-70
2022/04/03 06:16:30;;;;;;;11.73;8.23;;;-0.50;99.90;;;;;;484759;245;27476;-73
2022/04/03 06:18:31;;;;;;;7.90;7.10;;;-0.50;99.90;;;;;;484765;245;27845;-71
2022/04/03 06:20:33;;;;;;;9.77;7.97;;;-0.50;99.90;;;;;;484738;245;27919;-71
2022/04/03 06:22:34;;;;;;;7.72;6.87;;;-0.50;99.90;;;;;;484766;245;28841;-71
2022/04/03 06:24:35;;;;;;;10.98;7.90;;;-0.50;99.90;;;;;;484783;245;27401;-71
2022/04/03 06:26:36;;;;;;;9.77;8.77;;;-0.40;99.90;;;;;;484789;245;27535;-71
2022/04/03 06:28:38;;;;;;;8.50;7.50;;;-0.40;99.90;;;;;;484769;245;27484;-71
2022/04/03 06:30:39;;;;;;;10.32;7.47;;;-0.30;99.90;;;;;;484735;245;27531;-71
2022/04/03 06:32:40;;;;;;;10.15;8.00;;;-0.30;99.90;;;;;;484732;245;27491;-71
2022/04/03 06:34:41;;;;;;;9.20;7.78;;;-0.30;99.90;;;;;;484748;245;27467;-71
2022/04/03 06:36:43;;;;;;;9.65;7.85;;;-0.30;99.90;;;;;;484750;245;27913;-72
2022/04/03 06:38:44;;;;;;;10.57;8.45;;;-0.30;99.90;;;;;;484713;245;27881;-71
2022/04/03 06:40:45;;;;;;;10.32;7.57;;;-0.20;99.90;;;;;;484689;245;27555;-72
2022/04/03 06:42:46;;;;;;;12.93;7.75;;;-0.20;99.90;;;;;;484735;245;27515;-71
2022/04/03 06:44:48;;;;;;;11.00;8.27;;;-0.20;99.90;;;;;;484753;245;27405;-71
2022/04/03 06:46:49;;;;;;;10.45;8.05;;;-0.10;99.90;;;;;;484738;245;27467;-73
2022/04/03 06:48:51;;;;;;;11.38;8.82;;;-0.10;99.90;;;;;;484770;245;27396;-71
2022/04/03 06:50:51;;;;;;;9.32;7.95;;;-0.10;99.90;;;;;;484751;245;27424;-71
2022/04/03 06:52:53;;;;;;;11.23;7.70;;;-0.10;99.90;;;;;;484773;245;28777;-71
2022/04/03 06:54:54;;;;;;;10.68;8.15;;;-0.10;99.90;;;;;;484765;245;27948;-71
2022/04/03 06:56:55;;;;;;;12.07;8.55;;;0.00;99.90;;;;;;484746;245;27483;-72
2022/04/03 06:58:56;;;;;;;10.00;8.07;;;0.00;99.90;;;;;;484744;245;27428;-71
2022/04/03 07:00:58;;;;;;;9.32;7.28;;;0.00;99.90;;;;;;484739;245;27547;-71
2022/04/03 07:02:59;;;;;;;13.20;8.00;;;0.00;99.90;;;;;;484802;245;27420;-71
2022/04/03 07:05:00;;;;;;;7.68;6.87;;;0.10;99.90;;;;;;484797;245;27389;-71
2022/04/03 07:07:01;;;;;;;8.40;7.07;;;0.00;99.90;;;;;;484758;245;27431;-73
2022/04/03 07:09:03;;;;;;;9.25;7.07;;;0.10;99.90;;;;;;484771;245;27466;-71
2022/04/03 07:11:04;;;;;;;9.75;7.68;;;0.00;99.90;;;;;;484739;245;27425;-71
2022/04/03 07:13:05;;;;;;;9.05;7.10;;;0.10;99.90;;;;;;484779;245;27441;-73
2022/04/03 07:15:12;;;;;;;9.93;7.00;;;0.10;99.90;;;;;;484781;245;27908;-72
2022/04/03 07:17:08;;;;;;;8.00;7.20;;;0.10;99.90;;;;;;484430;245;27952;-72
2022/04/03 07:19:10;;;;;;;8.75;7.50;;;0.10;99.90;;;;;;484770;245;27854;-71
2022/04/03 07:21:10;;;;;;;13.18;8.65;;;0.20;99.90;;;;;;484670;245;27911;-71
2022/04/03 07:23:11;;;;;;;8.70;6.45;;;0.20;99.90;;;;;;484761;245;27428;-73
2022/04/03 07:25:13;;;;;;;11.30;7.80;;;0.10;99.90;;;;;;484763;245;27402;-71
2022/04/03 07:27:14;;;;;;;8.07;6.70;;;0.10;99.90;;;;;;484738;245;27447;-71
2022/04/03 07:29:15;;;;;;;9.88;7.35;;;0.20;99.90;;;;;;484753;245;27455;-70
2022/04/03 07:31:16;;;;;;;7.47;6.72;;;0.20;99.90;;;;;;484760;245;27512;-71
2022/04/03 07:33:21;;;;;;;8.57;7.70;;;0.30;99.90;;;;;;484766;245;27775;-72
2022/04/03 07:35:22;;;;;;;7.72;6.90;;;0.40;99.90;;;;;;484791;245;27452;-72
2022/04/03 07:37:23;;;;;;;7.68;6.53;;;0.40;99.90;;;;;;484764;245;27844;-71
2022/04/03 07:39:26;;;;;;;9.75;7.12;;;0.40;99.90;;;;;;484771;245;27924;-71
2022/04/03 07:41:26;;;;;;;7.80;7.00;;;0.40;99.90;;;;;;484708;245;27982;-71
2022/04/03 07:43:27;;;;;;;8.00;6.95;;;0.50;99.90;;;;;;484749;245;27917;-71
2022/04/03 07:45:28;;;;;;;7.53;6.72;;;0.50;99.90;;;;;;484773;245;27437;-74
2022/04/03 07:47:29;;;;;;;8.25;7.40;;;0.50;99.90;;;;;;484759;245;27480;-71
2022/04/03 07:49:31;;;;;;;8.90;6.80;;;0.60;99.90;;;;;;484757;245;27446;-71
2022/04/03 07:51:32;;;;;;;7.60;6.75;;;0.70;99.90;;;;;;484773;245;27393;-71
2022/04/03 07:53:33;;;;;;;7.12;6.43;;;0.70;99.90;;;;;;484729;245;27503;-71
2022/04/03 07:55:34;;;;;;;8.80;6.47;;;0.80;99.90;;;;;;484779;245;27532;-74
2022/04/03 07:57:36;;;;;;;7.75;6.95;;;0.80;99.90;;;;;;484744;245;27523;-71
2022/04/03 07:59:37;;;;;;;8.75;7.40;;;0.80;99.90;;;;;;484722;245;27585;-72
2022/04/03 08:01:39;;;;;;;8.88;6.85;;;0.90;99.90;;;;;;484739;245;27491;-71
2022/04/03 08:03:39;;;;;;;8.13;7.32;;;0.90;99.90;;;;;;484704;245;27485;-72
2022/04/03 08:05:41;;;;;;;8.27;7.30;;;1.00;99.90;;;;;;484754;245;27944;-72
2022/04/03 08:07:45;;;;;;;9.18;7.75;;;1.00;99.90;;;;;;484756;245;27943;-72
2022/04/03 08:09:43;;;;;;;8.23;7.00;;;1.00;99.90;;;;;;484582;245;28029;-72
2022/04/03 08:11:44;;;;;;;10.40;7.75;;;1.00;99.90;;;;;;484749;245;27939;-71
2022/04/03 08:13:47;;;;;;;10.65;7.72;;;1.10;99.90;;;;;;484750;245;27464;-72
2022/04/03 08:15:47;;;;;;;8.40;7.60;;;1.10;99.90;;;;;;484667;245;27475;-73
2022/04/03 08:17:48;;;;;;;9.43;7.78;;;1.00;99.90;;;;;;484766;245;27447;-72
2022/04/03 08:19:49;;;;;;;8.55;7.15;;;1.10;99.90;;;;;;484756;245;27433;-72
2022/04/03 08:21:51;;;;;;;7.53;6.68;;;1.20;99.90;;;;;;484757;245;27493;-72
2022/04/03 08:23:53;;;;;;;8.60;6.65;;;1.20;99.90;;;;;;484744;245;27428;-72
2022/04/03 08:25:53;;;;;;;8.35;5.50;;;1.20;99.90;;;;;;484714;245;27440;-74
2022/04/03 08:27:54;;;;;;;7.30;5.87;;;1.30;99.90;;;;;;484763;245;27882;-72
2022/04/03 08:29:56;;;;;;;7.28;5.70;;;1.30;99.90;;;;;;484724;245;27946;-72
2022/04/03 08:31:57;;;;;;;7.90;6.18;;;1.30;99.90;;;;;;484771;245;27484;-72
2022/04/03 08:33:58;;;;;;;5.93;5.32;;;1.50;99.90;;;;;;484747;245;27413;-72
2022/04/03 08:35:59;;;;;;;8.13;6.30;;;1.70;99.90;;;;;;484747;245;27444;-73
2022/04/03 08:38:01;;;;;;;5.85;5.20;;;1.60;99.90;;;;;;484761;245;27392;-72
2022/04/03 08:40:03;;;;;;;7.70;5.72;;;1.50;99.90;;;;;;484733;245;27484;-72
2022/04/03 08:42:03;;;;;;;5.75;5.25;;;1.60;99.90;;;;;;484655;245;27428;-72
2022/04/03 08:44:08;;;;;;;6.03;5.40;;;1.60;99.90;;;;;;484718;245;27435;-72
2022/04/03 08:46:06;;;;;;;7.10;6.40;;;1.80;99.90;;;;;;484499;245;27536;-72
2022/04/03 08:48:07;;;;;;;8.95;5.35;;;1.80;99.90;;;;;;484743;245;27471;-72
2022/04/03 08:50:08;;;;;;;6.75;5.78;;;1.80;99.90;;;;;;484727;245;27440;-72
2022/04/03 08:52:09;;;;;;;5.62;5.12;;;1.70;99.90;;;;;;484735;245;28767;-72
2022/04/03 08:54:11;;;;;;;7.53;5.53;;;1.80;99.90;;;;;;484763;245;27987;-72
2022/04/03 08:56:12;;;;;;;5.50;5.07;;;1.90;99.90;;;;;;484784;245;28029;-72
2022/04/03 08:58:13;;;;;;;8.10;4.85;;;1.80;99.90;;;;;;484777;245;27401;-72
2022/04/03 09:00:14;;;;;;;5.97;5.35;;;2.00;99.90;;;;;;484773;245;27448;-71
2022/04/03 09:02:16;;;;;;;7.43;4.60;;;2.00;99.90;;;;;;484803;245;27407;-72
2022/04/03 09:04:20;;;;;;;5.00;4.55;;;2.20;99.90;;;;;;484811;245;27392;-72
2022/04/03 09:06:18;;;;;;;5.35;4.82;;;2.40;99.90;;;;;;484529;245;27547;-72
2022/04/03 09:08:19;;;;;;;7.78;4.68;;;2.40;99.90;;;;;;484803;245;27408;-72
2022/04/03 09:10:21;;;;;;;7.35;4.97;;;2.30;99.90;;;;;;484781;245;27547;-72
2022/04/03 09:12:22;;;;;;;5.20;4.70;;;2.20;99.90;;;;;;484766;245;27488;-74
2022/04/03 09:14:23;;;;;;;7.50;5.20;;;2.10;99.90;;;;;;484777;245;27421;-72
2022/04/03 09:16:24;;;;;;;5.10;4.60;;;2.20;99.90;;;;;;484766;245;27433;-72
2022/04/03 09:18:26;;;;;;;5.20;4.35;;;2.10;99.90;;;;;;484786;245;28295;-72
2022/04/03 09:20:27;;;;;;;6.47;4.35;;;2.10;99.90;;;;;;484776;245;27998;-72
2022/04/03 09:22:28;;;;;;;4.10;3.80;;;2.10;99.90;;;;;;484797;245;28073;-75
2022/04/03 09:24:30;;;;;;;5.15;4.40;;;2.00;99.90;;;;;;484814;245;27866;-72
2022/04/03 09:26:31;;;;;;;4.70;4.28;;;1.90;99.90;;;;;;484795;245;27437;-72
2022/04/03 09:28:33;;;;;;;5.00;4.47;;;1.90;99.90;;;;;;487376;235;27376;-72
2022/04/03 09:30:33;;;;;;;4.43;4.03;;;1.90;99.90;;;;;;494680;240;27501;-72
2022/04/03 09:32:35;;;;;;;4.80;4.40;;;1.90;99.90;;;;;;494769;240;27472;-72
2022/04/03 09:34:36;;;;;;;7.65;4.68;;;2.00;99.90;;;;;;494805;240;27444;-72
2022/04/03 09:36:38;;;;;;;4.68;3.90;;;1.90;99.90;;;;;;494805;240;27546;-73
2022/04/03 09:38:38;;;;;;;4.55;4.15;;;1.90;99.90;;;;;;494629;240;27470;-72
2022/04/03 09:40:39;;;;;;;4.30;3.92;;;1.80;99.90;;;;;;494793;240;27484;-72
2022/04/03 09:42:41;;;;;;;4.60;3.95;;;1.90;99.90;;;;;;494768;240;27580;-75
2022/04/03 09:44:42;;;;;;;4.20;3.80;;;2.00;99.90;;;;;;494794;240;27559;-72
2022/04/03 09:46:43;;;;;;;4.50;4.10;;;1.90;99.90;;;;;;494798;240;28000;-73
2022/04/03 09:48:44;;;;;;;4.80;4.28;;;2.10;99.90;;;;;;494800;240;27910;-71
2022/04/03 09:50:46;;;;;;;4.20;3.90;;;2.10;99.90;;;;;;494774;240;28063;-72
2022/04/03 09:52:51;;;;;;;4.45;4.05;;;2.20;99.90;;;;;;494728;240;28263;-72
2022/04/03 09:54:48;;;;;;;5.45;4.30;;;2.20;99.90;;;;;;494484;240;27576;-72
2022/04/03 09:56:50;;;;;;;4.60;4.20;;;2.20;99.90;;;;;;494776;240;27609;-73
2022/04/03 09:58:51;;;;;;;4.50;3.65;;;2.30;99.90;;;;;;494752;240;27482;-72
2022/04/03 10:00:52;;;;;;;4.87;4.07;;;2.30;99.90;;;;;;494762;240;27523;-72
2022/04/03 10:02:53;;;;;;;4.97;4.35;;;2.50;99.90;;;;;;494741;240;27556;-71
2022/04/03 10:04:55;;;;;;;6.50;4.40;;;2.50;99.90;;;;;;494764;240;27460;-71
2022/04/03 10:06:56;;;;;;;5.15;4.22;;;2.50;99.90;;;;;;494658;240;27497;-72
2022/04/03 10:08:57;;;;;;;5.10;4.25;;;2.40;99.90;;;;;;494770;240;27500;-72
2022/04/03 10:10:58;;;;;;;4.10;3.70;;;2.70;99.90;;;;;;494763;240;27584;-74
2022/04/03 10:12:59;;;;;;;5.35;4.20;;;2.90;99.90;;;;;;494736;240;27517;-72
2022/04/03 10:15:01;;;;;;;3.90;3.50;;;2.90;99.90;;;;;;494763;240;27580;-72
2022/04/03 10:17:02;;;;;;;4.65;3.80;;;2.70;99.90;;;;;;494781;240;28071;-73
2022/04/03 10:19:03;;;;;;;4.20;3.90;;;2.90;99.90;;;;;;494775;240;27909;-71
2022/04/03 10:21:04;;;;;;;4.22;3.90;;;2.80;99.90;;;;;;494763;240;27987;-72
2022/04/03 10:23:06;;;;;;;5.70;4.00;;;2.80;99.90;;;;;;494756;240;27553;-72
2022/04/03 10:25:07;;;;;;;4.07;3.65;;;2.80;99.90;;;;;;494779;240;27471;-72
2022/04/03 10:27:08;;;;;;;4.30;3.90;;;2.90;99.90;;;;;;494718;240;27512;-75
2022/04/03 10:29:10;;;;;;;4.07;3.65;;;3.10;99.90;;;;;;494770;240;27584;-72
2022/04/03 10:31:11;;;;;;;3.60;3.30;;;3.30;99.90;;;;;;494782;240;27587;-73
2022/04/03 10:33:12;;;;;;;3.67;3.37;;;3.10;99.90;;;;;;494759;240;27477;-71
2022/04/03 10:35:13;;;;;;;3.62;3.33;;;3.10;99.90;;;;;;494753;240;27525;-70